sensor_id;sensor_type;location;lat;lon;timestamp;P1;durP1;ratioP1;P2;durP2;ratioP2
55364;SDS011;41245;45.384;20.390;2024-03-23T00:54:18;57.83;;;30.17;;
55364;SDS011;41245;45.384;20.390;2024-03-23T00:56:44;55.55;;;28.65;;
55364;SDS011;41245;45.384;20.390;2024-03-23T00:59:11;52.25;;;29.92;;
55364;SDS011;41245;45.384;20.390;2024-03-23T01:01:37;54.30;;;31.13;;
55364;SDS011;41245;45.384;20.390;2024-03-23T01:04:03;52.72;;;27.13;;
55364;SDS011;41245;45.384;20.390;2024-03-23T01:06:29;55.00;;;30.27;;
55364;SDS011;41245;45.384;20.390;2024-03-23T01:08:55;49.35;;;28.40;;
55364;SDS011;41245;45.384;20.390;2024-03-23T01:11:21;53.20;;;30.17;;
55364;SDS011;41245;45.384;20.390;2024-03-23T01:13:47;49.35;;;27.85;;
55364;SDS011;41245;45.384;20.390;2024-03-23T01:16:13;48.75;;;28.73;;
55364;SDS011;41245;45.384;20.390;2024-03-23T01:18:39;49.13;;;28.13;;
55364;SDS011;41245;45.384;20.390;2024-03-23T01:21:05;47.47;;;28.75;;
55364;SDS011;41245;45.384;20.390;2024-03-23T01:23:31;47.88;;;28.15;;
55364;SDS011;41245;45.384;20.390;2024-03-23T01:25:57;51.47;;;28.17;;
55364;SDS011;41245;45.384;20.390;2024-03-23T01:28:23;50.10;;;29.25;;
55364;SDS011;41245;45.384;20.390;2024-03-23T01:30:49;50.72;;;29.20;;
55364;SDS011;41245;45.384;20.390;2024-03-23T01:33:15;49.08;;;28.67;;
55364;SDS011;41245;45.384;20.390;2024-03-23T01:35:41;48.08;;;31.38;;
55364;SDS011;41245;45.384;20.390;2024-03-23T01:38:07;43.25;;;27.77;;
55364;SDS011;41245;45.384;20.390;2024-03-23T01:40:33;51.67;;;28.55;;
55364;SDS011;41245;45.384;20.390;2024-03-23T01:43:03;48.97;;;27.58;;
55364;SDS011;41245;45.384;20.390;2024-03-23T01:45:30;49.72;;;28.88;;
55364;SDS011;41245;45.384;20.390;2024-03-23T01:47:57;47.00;;;28.02;;
55364;SDS011;41245;45.384;20.390;2024-03-23T01:50:23;50.60;;;29.20;;
55364;SDS011;41245;45.384;20.390;2024-03-23T01:52:49;49.85;;;31.02;;
55364;SDS011;41245;45.384;20.390;2024-03-23T01:55:16;52.05;;;29.85;;
55364;SDS011;41245;45.384;20.390;2024-03-23T01:57:42;53.20;;;30.33;;
55364;SDS011;41245;45.384;20.390;2024-03-23T02:00:08;52.72;;;30.25;;
55364;SDS011;41245;45.384;20.390;2024-03-23T02:02:40;60.65;;;31.25;;
55364;SDS011;41245;45.384;20.390;2024-03-23T02:05:06;49.95;;;30.02;;
55364;SDS011;41245;45.384;20.390;2024-03-23T02:07:33;50.35;;;30.23;;
55364;SDS011;41245;45.384;20.390;2024-03-23T02:09:59;48.55;;;29.33;;
55364;SDS011;41245;45.384;20.390;2024-03-23T02:12:26;54.58;;;29.17;;
55364;SDS011;41245;45.384;20.390;2024-03-23T02:14:52;43.90;;;26.38;;
55364;SDS011;41245;45.384;20.390;2024-03-23T02:17:18;50.72;;;28.25;;
55364;SDS011;41245;45.384;20.390;2024-03-23T02:19:44;53.67;;;29.42;;
55364;SDS011;41245;45.384;20.390;2024-03-23T02:22:11;51.30;;;30.02;;
55364;SDS011;41245;45.384;20.390;2024-03-23T02:24:37;48.45;;;29.05;;
55364;SDS011;41245;45.384;20.390;2024-03-23T02:27:03;55.22;;;30.65;;
55364;SDS011;41245;45.384;20.390;2024-03-23T02:29:29;49.00;;;29.92;;
55364;SDS011;41245;45.384;20.390;2024-03-23T02:31:54;57.72;;;31.77;;
55364;SDS011;41245;45.384;20.390;2024-03-23T02:34:20;52.83;;;29.45;;
55364;SDS011;41245;45.384;20.390;2024-03-23T02:36:46;56.50;;;31.08;;
55364;SDS011;41245;45.384;20.390;2024-03-23T02:39:12;58.75;;;30.83;;
55364;SDS011;41245;45.384;20.390;2024-03-23T02:41:40;53.10;;;31.40;;
55364;SDS011;41245;45.384;20.390;2024-03-23T02:44:06;52.97;;;31.02;;
55364;SDS011;41245;45.384;20.390;2024-03-23T02:46:32;52.55;;;29.50;;
55364;SDS011;41245;45.384;20.390;2024-03-23T02:48:58;70.82;;;33.30;;
55364;SDS011;41245;45.384;20.390;2024-03-23T02:51:24;56.90;;;31.88;;
55364;SDS011;41245;45.384;20.390;2024-03-23T02:53:50;52.17;;;30.63;;
55364;SDS011;41245;45.384;20.390;2024-03-23T02:56:16;58.05;;;31.58;;
55364;SDS011;41245;45.384;20.390;2024-03-23T02:58:42;55.70;;;33.15;;
55364;SDS011;41245;45.384;20.390;2024-03-23T03:01:08;50.88;;;31.13;;
55364;SDS011;41245;45.384;20.390;2024-03-23T03:03:34;59.35;;;31.55;;
55364;SDS011;41245;45.384;20.390;2024-03-23T03:06:00;48.38;;;29.83;;
55364;SDS011;41245;45.384;20.390;2024-03-23T03:08:26;59.70;;;31.25;;
55364;SDS011;41245;45.384;20.390;2024-03-23T03:10:52;58.30;;;33.35;;
55364;SDS011;41245;45.384;20.390;2024-03-23T03:13:19;58.00;;;31.20;;
55364;SDS011;41245;45.384;20.390;2024-03-23T03:15:45;55.08;;;31.40;;
55364;SDS011;41245;45.384;20.390;2024-03-23T03:18:11;62.55;;;31.92;;
55364;SDS011;41245;45.384;20.390;2024-03-23T03:20:40;50.45;;;30.50;;
55364;SDS011;41245;45.384;20.390;2024-03-23T03:23:07;62.90;;;32.35;;
55364;SDS011;41245;45.384;20.390;2024-03-23T03:25:33;54.60;;;31.80;;
55364;SDS011;41245;45.384;20.390;2024-03-23T03:27:59;59.03;;;32.45;;
55364;SDS011;41245;45.384;20.390;2024-03-23T03:30:26;54.95;;;31.92;;
55364;SDS011;41245;45.384;20.390;2024-03-23T03:32:53;59.47;;;32.28;;
55364;SDS011;41245;45.384;20.390;2024-03-23T03:35:20;61.72;;;31.30;;
55364;SDS011;41245;45.384;20.390;2024-03-23T03:37:46;61.33;;;31.63;;
55364;SDS011;41245;45.384;20.390;2024-03-23T03:40:12;58.85;;;32.47;;
55364;SDS011;41245;45.384;20.390;2024-03-23T03:42:40;61.03;;;33.80;;
55364;SDS011;41245;45.384;20.390;2024-03-23T03:45:06;66.68;;;33.88;;
55364;SDS011;41245;45.384;20.390;2024-03-23T03:47:32;64.43;;;32.65;;
55364;SDS011;41245;45.384;20.390;2024-03-23T03:49:58;59.58;;;34.53;;
55364;SDS011;41245;45.384;20.390;2024-03-23T03:52:25;56.35;;;32.65;;
55364;SDS011;41245;45.384;20.390;2024-03-23T03:54:51;55.72;;;32.97;;
55364;SDS011;41245;45.384;20.390;2024-03-23T03:57:17;63.60;;;32.42;;
55364;SDS011;41245;45.384;20.390;2024-03-23T03:59:44;59.35;;;33.40;;
55364;SDS011;41245;45.384;20.390;2024-03-23T04:02:10;63.05;;;34.50;;
55364;SDS011;41245;45.384;20.390;2024-03-23T04:04:36;57.15;;;32.35;;
55364;SDS011;41245;45.384;20.390;2024-03-23T04:07:02;60.03;;;34.15;;
55364;SDS011;41245;45.384;20.390;2024-03-23T04:09:30;64.30;;;34.40;;
55364;SDS011;41245;45.384;20.390;2024-03-23T04:11:56;64.85;;;34.20;;
55364;SDS011;41245;45.384;20.390;2024-03-23T04:14:22;63.78;;;34.05;;
55364;SDS011;41245;45.384;20.390;2024-03-23T04:16:48;68.78;;;33.42;;
55364;SDS011;41245;45.384;20.390;2024-03-23T04:19:14;65.63;;;34.80;;
55364;SDS011;41245;45.384;20.390;2024-03-23T04:21:40;61.33;;;35.83;;
55364;SDS011;41245;45.384;20.390;2024-03-23T04:24:07;72.63;;;34.50;;
55364;SDS011;41245;45.384;20.390;2024-03-23T04:26:42;60.70;;;34.20;;
55364;SDS011;41245;45.384;20.390;2024-03-23T04:29:08;69.30;;;35.45;;
55364;SDS011;41245;45.384;20.390;2024-03-23T04:31:34;72.32;;;33.95;;
55364;SDS011;41245;45.384;20.390;2024-03-23T04:34:01;71.25;;;37.17;;
55364;SDS011;41245;45.384;20.390;2024-03-23T04:36:27;78.80;;;36.75;;
55364;SDS011;41245;45.384;20.390;2024-03-23T04:38:53;72.55;;;37.80;;
55364;SDS011;41245;45.384;20.390;2024-03-23T04:41:19;62.10;;;34.83;;
55364;SDS011;41245;45.384;20.390;2024-03-23T04:43:45;65.80;;;37.05;;
55364;SDS011;41245;45.384;20.390;2024-03-23T04:46:11;58.35;;;35.10;;
55364;SDS011;41245;45.384;20.390;2024-03-23T04:48:37;68.20;;;36.40;;
55364;SDS011;41245;45.384;20.390;2024-03-23T04:51:03;66.38;;;38.08;;
55364;SDS011;41245;45.384;20.390;2024-03-23T04:53:30;71.18;;;38.72;;
55364;SDS011;41245;45.384;20.390;2024-03-23T04:55:56;74.50;;;38.38;;
55364;SDS011;41245;45.384;20.390;2024-03-23T04:58:24;71.32;;;39.22;;
55364;SDS011;41245;45.384;20.390;2024-03-23T05:00:54;71.05;;;37.00;;
55364;SDS011;41245;45.384;20.390;2024-03-23T05:05:46;65.82;;;37.58;;
55364;SDS011;41245;45.384;20.390;2024-03-23T05:08:13;77.25;;;39.92;;
55364;SDS011;41245;45.384;20.390;2024-03-23T05:10:39;69.82;;;37.38;;
55364;SDS011;41245;45.384;20.390;2024-03-23T05:13:05;64.22;;;37.05;;
55364;SDS011;41245;45.384;20.390;2024-03-23T05:15:31;66.03;;;36.95;;
55364;SDS011;41245;45.384;20.390;2024-03-23T05:17:57;74.43;;;37.08;;
55364;SDS011;41245;45.384;20.390;2024-03-23T05:20:23;70.57;;;37.25;;
55364;SDS011;41245;45.384;20.390;2024-03-23T05:22:49;71.45;;;39.33;;
55364;SDS011;41245;45.384;20.390;2024-03-23T05:25:15;67.88;;;37.13;;
55364;SDS011;41245;45.384;20.390;2024-03-23T05:27:42;67.50;;;37.40;;
55364;SDS011;41245;45.384;20.390;2024-03-23T05:30:08;69.40;;;36.15;;
55364;SDS011;41245;45.384;20.390;2024-03-23T05:32:34;69.85;;;36.50;;
55364;SDS011;41245;45.384;20.390;2024-03-23T05:35:00;76.40;;;39.55;;
55364;SDS011;41245;45.384;20.390;2024-03-23T05:37:26;76.28;;;37.70;;
55364;SDS011;41245;45.384;20.390;2024-03-23T05:39:52;65.22;;;36.55;;
55364;SDS011;41245;45.384;20.390;2024-03-23T05:42:18;68.13;;;36.55;;
55364;SDS011;41245;45.384;20.390;2024-03-23T05:44:45;67.60;;;35.85;;
55364;SDS011;41245;45.384;20.390;2024-03-23T05:47:11;66.13;;;35.20;;
55364;SDS011;41245;45.384;20.390;2024-03-23T05:49:41;69.70;;;35.63;;
55364;SDS011;41245;45.384;20.390;2024-03-23T05:52:08;60.63;;;34.53;;
55364;SDS011;41245;45.384;20.390;2024-03-23T05:54:34;63.33;;;35.15;;
55364;SDS011;41245;45.384;20.390;2024-03-23T05:57:00;60.47;;;33.30;;
55364;SDS011;41245;45.384;20.390;2024-03-23T05:59:27;73.40;;;36.40;;
55364;SDS011;41245;45.384;20.390;2024-03-23T06:01:53;62.88;;;34.42;;
55364;SDS011;41245;45.384;20.390;2024-03-23T06:04:19;66.75;;;34.03;;
55364;SDS011;41245;45.384;20.390;2024-03-23T06:06:46;62.30;;;34.15;;
55364;SDS011;41245;45.384;20.390;2024-03-23T06:09:12;61.47;;;33.70;;
55364;SDS011;41245;45.384;20.390;2024-03-23T06:11:38;70.07;;;34.78;;
55364;SDS011;41245;45.384;20.390;2024-03-23T06:14:04;54.75;;;31.95;;
55364;SDS011;41245;45.384;20.390;2024-03-23T06:16:31;61.72;;;32.75;;
55364;SDS011;41245;45.384;20.390;2024-03-23T06:18:57;64.45;;;33.00;;
55364;SDS011;41245;45.384;20.390;2024-03-23T06:21:23;58.00;;;31.75;;
55364;SDS011;41245;45.384;20.390;2024-03-23T06:23:53;57.65;;;32.58;;
55364;SDS011;41245;45.384;20.390;2024-03-23T06:26:19;60.67;;;32.08;;
55364;SDS011;41245;45.384;20.390;2024-03-23T06:28:46;55.80;;;31.05;;
55364;SDS011;41245;45.384;20.390;2024-03-23T06:31:12;60.25;;;32.75;;
55364;SDS011;41245;45.384;20.390;2024-03-23T06:33:39;59.63;;;29.60;;
55364;SDS011;41245;45.384;20.390;2024-03-23T06:36:11;61.10;;;30.80;;
55364;SDS011;41245;45.384;20.390;2024-03-23T06:38:37;57.73;;;32.70;;
55364;SDS011;41245;45.384;20.390;2024-03-23T06:41:04;52.47;;;28.63;;
55364;SDS011;41245;45.384;20.390;2024-03-23T06:43:30;50.80;;;30.90;;
55364;SDS011;41245;45.384;20.390;2024-03-23T06:45:56;56.28;;;30.23;;
55364;SDS011;41245;45.384;20.390;2024-03-23T06:48:22;52.45;;;28.95;;
55364;SDS011;41245;45.384;20.390;2024-03-23T06:50:48;50.38;;;27.52;;
55364;SDS011;41245;45.384;20.390;2024-03-23T06:53:14;46.33;;;27.42;;
55364;SDS011;41245;45.384;20.390;2024-03-23T06:55:41;56.35;;;28.20;;
55364;SDS011;41245;45.384;20.390;2024-03-23T06:58:07;47.92;;;26.48;;
55364;SDS011;41245;45.384;20.390;2024-03-23T07:00:35;46.92;;;27.40;;
55364;SDS011;41245;45.384;20.390;2024-03-23T07:03:01;57.40;;;27.15;;
55364;SDS011;41245;45.384;20.390;2024-03-23T07:05:28;49.70;;;25.60;;
55364;SDS011;41245;45.384;20.390;2024-03-23T07:07:54;50.08;;;25.77;;
55364;SDS011;41245;45.384;20.390;2024-03-23T07:10:20;49.85;;;26.10;;
55364;SDS011;41245;45.384;20.390;2024-03-23T07:12:46;52.97;;;24.45;;
55364;SDS011;41245;45.384;20.390;2024-03-23T07:15:12;47.90;;;25.45;;
55364;SDS011;41245;45.384;20.390;2024-03-23T07:17:38;46.45;;;23.55;;
55364;SDS011;41245;45.384;20.390;2024-03-23T07:20:05;57.75;;;28.00;;
55364;SDS011;41245;45.384;20.390;2024-03-23T07:22:35;51.92;;;28.05;;
55364;SDS011;41245;45.384;20.390;2024-03-23T07:25:01;38.67;;;22.48;;
55364;SDS011;41245;45.384;20.390;2024-03-23T07:27:28;37.45;;;21.27;;
55364;SDS011;41245;45.384;20.390;2024-03-23T07:29:54;40.63;;;21.65;;
55364;SDS011;41245;45.384;20.390;2024-03-23T07:32:20;37.97;;;22.35;;
55364;SDS011;41245;45.384;20.390;2024-03-23T07:34:47;34.65;;;22.15;;
55364;SDS011;41245;45.384;20.390;2024-03-23T07:37:13;40.95;;;20.48;;
55364;SDS011;41245;45.384;20.390;2024-03-23T07:39:39;40.15;;;20.20;;
55364;SDS011;41245;45.384;20.390;2024-03-23T07:42:06;36.08;;;19.70;;
55364;SDS011;41245;45.384;20.390;2024-03-23T07:44:32;37.50;;;21.83;;
55364;SDS011;41245;45.384;20.390;2024-03-23T07:47:01;40.22;;;20.52;;
55364;SDS011;41245;45.384;20.390;2024-03-23T07:49:27;32.40;;;19.17;;
55364;SDS011;41245;45.384;20.390;2024-03-23T07:51:53;33.20;;;18.80;;
55364;SDS011;41245;45.384;20.390;2024-03-23T07:54:19;35.15;;;18.98;;
55364;SDS011;41245;45.384;20.390;2024-03-23T07:56:45;36.80;;;18.60;;
55364;SDS011;41245;45.384;20.390;2024-03-23T07:59:11;35.10;;;18.67;;
55364;SDS011;41245;45.384;20.390;2024-03-23T08:01:37;36.63;;;17.58;;
55364;SDS011;41245;45.384;20.390;2024-03-23T08:04:03;35.03;;;17.45;;
55364;SDS011;41245;45.384;20.390;2024-03-23T08:06:30;28.40;;;17.73;;
55364;SDS011;41245;45.384;20.390;2024-03-23T08:08:57;29.83;;;17.08;;
55364;SDS011;41245;45.384;20.390;2024-03-23T08:11:27;36.17;;;16.67;;
55364;SDS011;41245;45.384;20.390;2024-03-23T08:13:54;33.10;;;15.15;;
55364;SDS011;41245;45.384;20.390;2024-03-23T08:16:20;39.70;;;16.75;;
55364;SDS011;41245;45.384;20.390;2024-03-23T08:18:46;28.60;;;16.50;;
55364;SDS011;41245;45.384;20.390;2024-03-23T08:21:13;25.85;;;15.52;;
55364;SDS011;41245;45.384;20.390;2024-03-23T08:23:39;28.85;;;17.95;;
55364;SDS011;41245;45.384;20.390;2024-03-23T08:26:09;26.25;;;14.77;;
55364;SDS011;41245;45.384;20.390;2024-03-23T08:28:35;33.65;;;16.55;;
55364;SDS011;41245;45.384;20.390;2024-03-23T08:31:12;27.13;;;15.57;;
55364;SDS011;41245;45.384;20.390;2024-03-23T08:33:39;30.38;;;14.23;;
55364;SDS011;41245;45.384;20.390;2024-03-23T08:36:08;27.15;;;15.88;;
55364;SDS011;41245;45.384;20.390;2024-03-23T08:38:34;31.27;;;16.67;;
55364;SDS011;41245;45.384;20.390;2024-03-23T08:41:01;27.92;;;14.30;;
55364;SDS011;41245;45.384;20.390;2024-03-23T08:43:28;23.77;;;13.75;;
55364;SDS011;41245;45.384;20.390;2024-03-23T08:46:02;34.25;;;15.88;;
55364;SDS011;41245;45.384;20.390;2024-03-23T08:48:28;23.65;;;14.15;;
55364;SDS011;41245;45.384;20.390;2024-03-23T08:53:27;25.50;;;14.48;;
55364;SDS011;41245;45.384;20.390;2024-03-23T08:55:54;26.20;;;12.07;;
55364;SDS011;41245;45.384;20.390;2024-03-23T08:58:20;23.88;;;12.38;;
55364;SDS011;41245;45.384;20.390;2024-03-23T09:00:46;25.05;;;12.18;;
55364;SDS011;41245;45.384;20.390;2024-03-23T09:03:14;31.02;;;14.70;;
55364;SDS011;41245;45.384;20.390;2024-03-23T09:05:40;21.48;;;11.60;;
55364;SDS011;41245;45.384;20.390;2024-03-23T09:08:06;23.00;;;11.77;;
55364;SDS011;41245;45.384;20.390;2024-03-23T09:10:39;24.25;;;11.60;;
55364;SDS011;41245;45.384;20.390;2024-03-23T09:13:05;24.95;;;11.27;;
55364;SDS011;41245;45.384;20.390;2024-03-23T09:15:35;34.33;;;12.68;;
55364;SDS011;41245;45.384;20.390;2024-03-23T09:20:27;24.48;;;12.43;;
55364;SDS011;41245;45.384;20.390;2024-03-23T09:22:53;22.58;;;12.48;;
55364;SDS011;41245;45.384;20.390;2024-03-23T09:25:19;19.50;;;12.43;;
55364;SDS011;41245;45.384;20.390;2024-03-23T09:27:46;33.92;;;14.00;;
55364;SDS011;41245;45.384;20.390;2024-03-23T09:30:13;39.55;;;14.85;;
55364;SDS011;41245;45.384;20.390;2024-03-23T09:32:40;32.17;;;14.80;;
55364;SDS011;41245;45.384;20.390;2024-03-23T09:35:06;24.00;;;14.00;;
55364;SDS011;41245;45.384;20.390;2024-03-23T09:37:33;24.95;;;14.18;;
55364;SDS011;41245;45.384;20.390;2024-03-23T09:39:59;22.33;;;14.00;;
55364;SDS011;41245;45.384;20.390;2024-03-23T09:42:25;23.17;;;14.00;;
55364;SDS011;41245;45.384;20.390;2024-03-23T09:44:51;29.25;;;15.82;;
55364;SDS011;41245;45.384;20.390;2024-03-23T09:47:17;23.35;;;14.50;;
55364;SDS011;41245;45.384;20.390;2024-03-23T09:49:43;25.35;;;13.63;;
55364;SDS011;41245;45.384;20.390;2024-03-23T09:52:10;27.00;;;14.25;;
55364;SDS011;41245;45.384;20.390;2024-03-23T09:54:36;24.65;;;15.48;;
55364;SDS011;41245;45.384;20.390;2024-03-23T09:57:02;24.70;;;13.13;;
55364;SDS011;41245;45.384;20.390;2024-03-23T09:59:29;20.10;;;11.38;;
55364;SDS011;41245;45.384;20.390;2024-03-23T10:01:55;21.50;;;11.15;;
55364;SDS011;41245;45.384;20.390;2024-03-23T10:04:37;19.02;;;10.52;;
55364;SDS011;41245;45.384;20.390;2024-03-23T10:07:17;32.40;;;10.93;;
55364;SDS011;41245;45.384;20.390;2024-03-23T10:09:44;17.25;;;10.32;;
55364;SDS011;41245;45.384;20.390;2024-03-23T10:12:10;18.50;;;11.13;;
55364;SDS011;41245;45.384;20.390;2024-03-23T10:14:38;17.20;;;10.15;;
55364;SDS011;41245;45.384;20.390;2024-03-23T10:17:17;17.38;;;10.63;;
55364;SDS011;41245;45.384;20.390;2024-03-23T10:19:47;19.40;;;11.15;;
55364;SDS011;41245;45.384;20.390;2024-03-23T10:22:18;22.13;;;11.10;;
55364;SDS011;41245;45.384;20.390;2024-03-23T10:24:44;16.90;;;10.02;;
55364;SDS011;41245;45.384;20.390;2024-03-23T10:27:17;25.13;;;9.43;;
55364;SDS011;41245;45.384;20.390;2024-03-23T10:29:44;17.00;;;9.25;;
55364;SDS011;41245;45.384;20.390;2024-03-23T10:32:13;20.17;;;9.30;;
55364;SDS011;41245;45.384;20.390;2024-03-23T10:34:40;26.25;;;9.18;;
55364;SDS011;41245;45.384;20.390;2024-03-23T10:37:06;15.77;;;8.93;;
55364;SDS011;41245;45.384;20.390;2024-03-23T10:39:33;17.58;;;8.70;;
55364;SDS011;41245;45.384;20.390;2024-03-23T10:42:03;17.63;;;8.98;;
55364;SDS011;41245;45.384;20.390;2024-03-23T10:44:30;19.88;;;12.00;;
55364;SDS011;41245;45.384;20.390;2024-03-23T10:47:00;22.95;;;9.40;;
55364;SDS011;41245;45.384;20.390;2024-03-23T10:49:28;19.77;;;9.95;;
55364;SDS011;41245;45.384;20.390;2024-03-23T10:51:55;19.58;;;9.77;;
55364;SDS011;41245;45.384;20.390;2024-03-23T10:54:21;12.43;;;8.35;;
55364;SDS011;41245;45.384;20.390;2024-03-23T10:56:47;17.23;;;9.13;;
55364;SDS011;41245;45.384;20.390;2024-03-23T10:59:15;18.75;;;9.45;;
55364;SDS011;41245;45.384;20.390;2024-03-23T11:01:54;20.05;;;10.68;;
55364;SDS011;41245;45.384;20.390;2024-03-23T11:04:30;17.20;;;10.23;;
55364;SDS011;41245;45.384;20.390;2024-03-23T11:06:56;17.83;;;9.68;;
55364;SDS011;41245;45.384;20.390;2024-03-23T11:09:41;14.25;;;9.73;;
55364;SDS011;41245;45.384;20.390;2024-03-23T11:14:48;14.07;;;8.38;;
55364;SDS011;41245;45.384;20.390;2024-03-23T11:17:21;13.82;;;7.63;;
55364;SDS011;41245;45.384;20.390;2024-03-23T11:20:01;21.17;;;7.82;;
55364;SDS011;41245;45.384;20.390;2024-03-23T11:22:42;11.10;;;6.55;;
55364;SDS011;41245;45.384;20.390;2024-03-23T11:25:25;12.65;;;6.18;;
55364;SDS011;41245;45.384;20.390;2024-03-23T11:27:52;16.20;;;9.07;;
55364;SDS011;41245;45.384;20.390;2024-03-23T11:32:48;12.70;;;7.03;;
55364;SDS011;41245;45.384;20.390;2024-03-23T11:35:33;13.88;;;5.57;;
55364;SDS011;41245;45.384;20.390;2024-03-23T11:38:12;15.00;;;5.30;;
55364;SDS011;41245;45.384;20.390;2024-03-23T11:43:06;14.10;;;5.57;;
55364;SDS011;41245;45.384;20.390;2024-03-23T11:45:36;14.05;;;5.15;;
55364;SDS011;41245;45.384;20.390;2024-03-23T11:48:04;18.40;;;5.43;;
55364;SDS011;41245;45.384;20.390;2024-03-23T11:50:30;12.05;;;5.38;;
55364;SDS011;41245;45.384;20.390;2024-03-23T11:58:22;10.25;;;6.43;;
55364;SDS011;41245;45.384;20.390;2024-03-23T12:03:17;15.10;;;6.47;;
55364;SDS011;41245;45.384;20.390;2024-03-23T12:05:49;8.98;;;5.05;;
55364;SDS011;41245;45.384;20.390;2024-03-23T12:10:48;15.83;;;5.40;;
55364;SDS011;41245;45.384;20.390;2024-03-23T12:13:14;7.25;;;4.65;;
55364;SDS011;41245;45.384;20.390;2024-03-23T12:15:42;12.70;;;4.25;;
55364;SDS011;41245;45.384;20.390;2024-03-23T12:18:08;5.07;;;4.00;;
55364;SDS011;41245;45.384;20.390;2024-03-23T12:20:35;7.00;;;4.68;;
55364;SDS011;41245;45.384;20.390;2024-03-23T12:23:12;11.02;;;4.93;;
55364;SDS011;41245;45.384;20.390;2024-03-23T12:25:38;6.85;;;4.43;;
55364;SDS011;41245;45.384;20.390;2024-03-23T12:28:05;12.25;;;4.90;;
55364;SDS011;41245;45.384;20.390;2024-03-23T12:30:41;7.22;;;4.70;;
55364;SDS011;41245;45.384;20.390;2024-03-23T12:33:07;11.20;;;5.38;;
55364;SDS011;41245;45.384;20.390;2024-03-23T12:35:33;5.65;;;4.00;;
55364;SDS011;41245;45.384;20.390;2024-03-23T12:37:59;8.00;;;4.30;;
55364;SDS011;41245;45.384;20.390;2024-03-23T12:40:26;7.35;;;4.13;;
55364;SDS011;41245;45.384;20.390;2024-03-23T12:42:53;10.88;;;4.07;;
55364;SDS011;41245;45.384;20.390;2024-03-23T12:45:19;10.65;;;3.72;;
55364;SDS011;41245;45.384;20.390;2024-03-23T12:47:45;4.88;;;3.40;;
55364;SDS011;41245;45.384;20.390;2024-03-23T12:50:11;5.72;;;3.85;;
55364;SDS011;41245;45.384;20.390;2024-03-23T12:52:37;6.28;;;3.95;;
55364;SDS011;41245;45.384;20.390;2024-03-23T12:55:04;12.60;;;5.18;;
55364;SDS011;41245;45.384;20.390;2024-03-23T12:57:31;9.93;;;5.57;;
55364;SDS011;41245;45.384;20.390;2024-03-23T12:59:57;9.98;;;3.75;;
55364;SDS011;41245;45.384;20.390;2024-03-23T13:02:24;8.00;;;3.60;;
55364;SDS011;41245;45.384;20.390;2024-03-23T13:04:50;5.05;;;2.95;;
55364;SDS011;41245;45.384;20.390;2024-03-23T13:07:17;14.40;;;3.70;;
55364;SDS011;41245;45.384;20.390;2024-03-23T13:09:43;5.32;;;3.05;;
55364;SDS011;41245;45.384;20.390;2024-03-23T13:12:09;6.03;;;3.90;;
55364;SDS011;41245;45.384;20.390;2024-03-23T13:14:39;4.63;;;3.70;;
55364;SDS011;41245;45.384;20.390;2024-03-23T13:17:05;6.57;;;4.13;;
55364;SDS011;41245;45.384;20.390;2024-03-23T13:19:32;6.30;;;3.90;;
55364;SDS011;41245;45.384;20.390;2024-03-23T13:21:58;8.27;;;4.05;;
55364;SDS011;41245;45.384;20.390;2024-03-23T13:24:25;13.95;;;4.10;;
55364;SDS011;41245;45.384;20.390;2024-03-23T13:26:51;4.32;;;3.45;;
55364;SDS011;41245;45.384;20.390;2024-03-23T13:29:18;4.60;;;3.53;;
55364;SDS011;41245;45.384;20.390;2024-03-23T13:31:45;10.68;;;3.65;;
55364;SDS011;41245;45.384;20.390;2024-03-23T13:34:11;15.65;;;4.10;;
55364;SDS011;41245;45.384;20.390;2024-03-23T13:36:39;4.20;;;3.58;;
55364;SDS011;41245;45.384;20.390;2024-03-23T13:39:06;6.70;;;3.42;;
55364;SDS011;41245;45.384;20.390;2024-03-23T13:41:42;5.05;;;3.40;;
55364;SDS011;41245;45.384;20.390;2024-03-23T13:44:09;4.22;;;3.22;;
55364;SDS011;41245;45.384;20.390;2024-03-23T13:46:36;5.20;;;3.35;;
55364;SDS011;41245;45.384;20.390;2024-03-23T13:49:02;4.90;;;4.03;;
55364;SDS011;41245;45.384;20.390;2024-03-23T13:51:28;6.82;;;3.42;;
55364;SDS011;41245;45.384;20.390;2024-03-23T13:53:54;6.22;;;3.60;;
55364;SDS011;41245;45.384;20.390;2024-03-23T13:56:29;8.82;;;4.30;;
55364;SDS011;41245;45.384;20.390;2024-03-23T13:58:56;8.80;;;3.60;;
55364;SDS011;41245;45.384;20.390;2024-03-23T14:01:23;9.45;;;3.50;;
55364;SDS011;41245;45.384;20.390;2024-03-23T14:03:49;4.53;;;3.45;;
55364;SDS011;41245;45.384;20.390;2024-03-23T14:06:15;6.90;;;3.78;;
55364;SDS011;41245;45.384;20.390;2024-03-23T14:08:41;5.80;;;3.60;;
55364;SDS011;41245;45.384;20.390;2024-03-23T14:11:08;7.28;;;3.80;;
55364;SDS011;41245;45.384;20.390;2024-03-23T14:13:34;8.95;;;3.70;;
55364;SDS011;41245;45.384;20.390;2024-03-23T14:16:01;8.45;;;3.60;;
55364;SDS011;41245;45.384;20.390;2024-03-23T14:18:27;5.13;;;3.00;;
55364;SDS011;41245;45.384;20.390;2024-03-23T14:20:57;5.28;;;3.00;;
55364;SDS011;41245;45.384;20.390;2024-03-23T14:25:49;8.07;;;3.63;;
55364;SDS011;41245;45.384;20.390;2024-03-23T14:28:15;9.75;;;3.28;;
55364;SDS011;41245;45.384;20.390;2024-03-23T14:30:41;6.93;;;3.40;;
55364;SDS011;41245;45.384;20.390;2024-03-23T14:33:08;7.85;;;3.35;;
55364;SDS011;41245;45.384;20.390;2024-03-23T14:35:34;8.02;;;3.60;;
55364;SDS011;41245;45.384;20.390;2024-03-23T14:38:01;4.85;;;3.33;;
55364;SDS011;41245;45.384;20.390;2024-03-23T14:40:27;13.32;;;4.10;;
55364;SDS011;41245;45.384;20.390;2024-03-23T14:42:54;6.70;;;3.05;;
55364;SDS011;41245;45.384;20.390;2024-03-23T14:45:21;5.78;;;3.55;;
55364;SDS011;41245;45.384;20.390;2024-03-23T14:47:48;5.15;;;3.17;;
55364;SDS011;41245;45.384;20.390;2024-03-23T14:50:14;7.43;;;3.92;;
55364;SDS011;41245;45.384;20.390;2024-03-23T14:52:45;8.82;;;3.58;;
55364;SDS011;41245;45.384;20.390;2024-03-23T14:57:37;6.50;;;3.80;;
55364;SDS011;41245;45.384;20.390;2024-03-23T15:00:05;8.20;;;3.95;;
55364;SDS011;41245;45.384;20.390;2024-03-23T15:02:32;9.20;;;3.00;;
55364;SDS011;41245;45.384;20.390;2024-03-23T15:04:59;6.15;;;3.70;;
55364;SDS011;41245;45.384;20.390;2024-03-23T15:07:25;10.57;;;4.53;;
55364;SDS011;41245;45.384;20.390;2024-03-23T15:09:53;8.57;;;3.92;;
55364;SDS011;41245;45.384;20.390;2024-03-23T15:12:19;6.78;;;3.70;;
55364;SDS011;41245;45.384;20.390;2024-03-23T15:14:46;8.10;;;5.00;;
55364;SDS011;41245;45.384;20.390;2024-03-23T15:17:12;12.15;;;4.22;;
55364;SDS011;41245;45.384;20.390;2024-03-23T15:19:38;12.45;;;3.55;;
55364;SDS011;41245;45.384;20.390;2024-03-23T15:22:06;7.15;;;3.53;;
55364;SDS011;41245;45.384;20.390;2024-03-23T15:24:33;7.55;;;3.70;;
55364;SDS011;41245;45.384;20.390;2024-03-23T15:27:00;4.25;;;3.47;;
55364;SDS011;41245;45.384;20.390;2024-03-23T15:29:27;8.80;;;3.35;;
55364;SDS011;41245;45.384;20.390;2024-03-23T15:31:53;7.55;;;3.47;;
55364;SDS011;41245;45.384;20.390;2024-03-23T15:34:19;12.25;;;3.58;;
55364;SDS011;41245;45.384;20.390;2024-03-23T15:36:47;9.75;;;3.67;;
55364;SDS011;41245;45.384;20.390;2024-03-23T15:39:14;8.00;;;3.72;;